SHT3P EGCC-EGLL
Flight info
| Callsign | SHT3P |
|---|---|
| Flight time | 0h 35m |
| Altitude | 19000 |
| Route | LISTO L612 HON |
| Aircraft | A319/M-SDE3FGHIRWY/LB1 |
Departure
| Time | 2026-04-30 19:01 |
|---|---|
| Airport | Manchester Airport (EGCC) |
Arrival
| Time | 2026-04-30 19:36 |
|---|---|
| Airport | London Heathrow Airport (EGLL) |
| Time | Latitude | Longitude | Altitude | Speed | Heading |
|---|---|---|---|---|---|
| 2026-04-30 18:35 | 53.36863 | -2.28833 | 255 ft | 0 kts | 135° |
| 2026-04-30 18:46 | 53.36869 | -2.28842 | 255 ft | 4 kts | 135° |
| 2026-04-30 18:46 | 53.36884 | -2.28869 | 255 ft | 3 kts | 135° |
| 2026-04-30 18:47 | 53.36899 | -2.28883 | 255 ft | 4 kts | 212° |
| 2026-04-30 18:47 | 53.36906 | -2.28876 | 255 ft | 3 kts | 225° |
| 2026-04-30 18:47 | 53.36886 | -2.28907 | 255 ft | 4 kts | 225° |
| 2026-04-30 18:47 | 53.36868 | -2.28938 | 255 ft | 2 kts | 225° |
| 2026-04-30 18:48 | 53.36867 | -2.28940 | 255 ft | 0 kts | 225° |
| 2026-04-30 18:49 | 53.36865 | -2.28943 | 255 ft | 2 kts | 225° |
| 2026-04-30 18:50 | 53.36850 | -2.28968 | 255 ft | 4 kts | 225° |
| 2026-04-30 18:50 | 53.36821 | -2.29007 | 255 ft | 7 kts | 211° |
| 2026-04-30 18:50 | 53.36769 | -2.29039 | 255 ft | 9 kts | 188° |
| 2026-04-30 18:50 | 53.36709 | -2.28979 | 255 ft | 12 kts | 134° |
| 2026-04-30 18:51 | 53.36636 | -2.28891 | 255 ft | 14 kts | 155° |
| 2026-04-30 18:51 | 53.36571 | -2.28754 | 255 ft | 17 kts | 124° |
| 2026-04-30 18:51 | 53.36499 | -2.28621 | 255 ft | 11 kts | 135° |
| 2026-04-30 18:51 | 53.36460 | -2.28555 | 255 ft | 8 kts | 134° |
| 2026-04-30 18:52 | 53.36453 | -2.28544 | 255 ft | 2 kts | 134° |
| 2026-04-30 18:52 | 53.36437 | -2.28517 | 255 ft | 5 kts | 139° |
| 2026-04-30 18:52 | 53.36397 | -2.28481 | 255 ft | 8 kts | 161° |
| 2026-04-30 18:52 | 53.36333 | -2.28451 | 255 ft | 11 kts | 146° |
| 2026-04-30 18:53 | 53.36271 | -2.28348 | 255 ft | 14 kts | 134° |
| 2026-04-30 18:53 | 53.36195 | -2.28218 | 255 ft | 17 kts | 135° |
| 2026-04-30 18:53 | 53.36114 | -2.28082 | 255 ft | 15 kts | 136° |
| 2026-04-30 18:53 | 53.36039 | -2.27971 | 255 ft | 12 kts | 139° |
| 2026-04-30 18:54 | 53.35968 | -2.27874 | 255 ft | 15 kts | 149° |
| 2026-04-30 18:54 | 53.35860 | -2.27855 | 253 ft | 15 kts | 186° |
| 2026-04-30 18:54 | 53.35763 | -2.27872 | 248 ft | 15 kts | 186° |
| 2026-04-30 18:54 | 53.35653 | -2.27890 | 242 ft | 14 kts | 186° |
| 2026-04-30 18:55 | 53.35565 | -2.28022 | 237 ft | 21 kts | 230° |
| 2026-04-30 18:55 | 53.35303 | -2.28215 | 234 ft | 20 kts | 209° |
| 2026-04-30 18:55 | 53.35199 | -2.28369 | 230 ft | 19 kts | 232° |
| 2026-04-30 18:56 | 53.35075 | -2.28625 | 229 ft | 14 kts | 230° |
| 2026-04-30 18:56 | 53.35002 | -2.28762 | 227 ft | 18 kts | 226° |
| 2026-04-30 18:56 | 53.34912 | -2.28923 | 224 ft | 14 kts | 226° |
| 2026-04-30 18:57 | 53.34796 | -2.29069 | 222 ft | 0 kts | 186° |
| 2026-04-30 18:58 | 53.34758 | -2.29070 | 219 ft | 5 kts | 175° |
| 2026-04-30 18:58 | 53.34712 | -2.29044 | 222 ft | 9 kts | 151° |
| 2026-04-30 18:58 | 53.34676 | -2.28953 | 226 ft | 10 kts | 86° |
| 2026-04-30 18:59 | 53.34696 | -2.28899 | 221 ft | 0 kts | 51° |
| 2026-04-30 19:00 | 53.34750 | -2.28786 | 224 ft | 39 kts | 51° |
| 2026-04-30 19:00 | 53.35634 | -2.26960 | 282 ft | 154 kts | 53° |
| 2026-04-30 19:01 | 53.37122 | -2.23854 | 1234 ft | 196 kts | 60° |
| 2026-04-30 19:01 | 53.37600 | -2.21659 | 1728 ft | 212 kts | 96° |
| 2026-04-30 19:02 | 53.35711 | -2.17729 | 3484 ft | 234 kts | 148° |
| 2026-04-30 19:02 | 53.32476 | -2.16923 | 5508 ft | 250 kts | 186° |
| 2026-04-30 19:03 | 53.28965 | -2.17552 | 7528 ft | 259 kts | 185° |
| 2026-04-30 19:03 | 53.25317 | -2.18166 | 9533 ft | 267 kts | 184° |
| 2026-04-30 19:04 | 53.21475 | -2.18777 | 10797 ft | 298 kts | 184° |
| 2026-04-30 19:04 | 53.17144 | -2.19456 | 12019 ft | 320 kts | 184° |
| 2026-04-30 19:05 | 53.12704 | -2.18747 | 13696 ft | 324 kts | 162° |
| 2026-04-30 19:05 | 53.08490 | -2.15871 | 15173 ft | 331 kts | 157° |
| 2026-04-30 19:06 | 53.04192 | -2.12882 | 16596 ft | 338 kts | 158° |
| 2026-04-30 19:06 | 53.02008 | -2.11374 | 17286 ft | 342 kts | 158° |
| 2026-04-30 19:06 | 52.97560 | -2.08311 | 18655 ft | 350 kts | 158° |
| 2026-04-30 19:07 | 52.93047 | -2.05207 | 19157 ft | 354 kts | 158° |
| 2026-04-30 19:07 | 52.90738 | -2.03626 | 19186 ft | 363 kts | 158° |
| 2026-04-30 19:08 | 52.86042 | -2.00407 | 19189 ft | 368 kts | 158° |
| 2026-04-30 19:08 | 52.81325 | -1.97186 | 19195 ft | 370 kts | 158° |
| 2026-04-30 19:08 | 52.78914 | -1.95545 | 19191 ft | 370 kts | 158° |
| 2026-04-30 19:09 | 52.74182 | -1.92330 | 19195 ft | 369 kts | 158° |
| 2026-04-30 19:09 | 52.71812 | -1.90717 | 19190 ft | 368 kts | 158° |
| 2026-04-30 19:09 | 52.69450 | -1.89106 | 19189 ft | 367 kts | 158° |
| 2026-04-30 19:10 | 52.64725 | -1.85893 | 19184 ft | 367 kts | 158° |
| 2026-04-30 19:10 | 52.59999 | -1.82705 | 19181 ft | 367 kts | 158° |
| 2026-04-30 19:11 | 52.57631 | -1.81112 | 19179 ft | 367 kts | 158° |
| 2026-04-30 19:11 | 52.52904 | -1.77933 | 19181 ft | 367 kts | 158° |
| 2026-04-30 19:11 | 52.50540 | -1.76342 | 19183 ft | 367 kts | 158° |
| 2026-04-30 19:12 | 52.48176 | -1.74751 | 19180 ft | 367 kts | 158° |
| 2026-04-30 19:12 | 52.45817 | -1.73164 | 19184 ft | 367 kts | 158° |
| 2026-04-30 19:12 | 52.43455 | -1.71579 | 19181 ft | 367 kts | 158° |
| 2026-04-30 19:13 | 52.38727 | -1.68419 | 19183 ft | 367 kts | 158° |
| 2026-04-30 19:13 | 52.34277 | -1.64415 | 19184 ft | 368 kts | 142° |
| 2026-04-30 19:13 | 52.32339 | -1.61682 | 19180 ft | 368 kts | 140° |
| 2026-04-30 19:14 | 52.30406 | -1.58944 | 19216 ft | 368 kts | 140° |
| 2026-04-30 19:14 | 52.28473 | -1.56210 | 19225 ft | 368 kts | 140° |
| 2026-04-30 19:14 | 52.26536 | -1.53477 | 19237 ft | 368 kts | 140° |
| 2026-04-30 19:14 | 52.24624 | -1.50790 | 19244 ft | 367 kts | 140° |
| 2026-04-30 19:15 | 52.22688 | -1.48072 | 19246 ft | 367 kts | 140° |
| 2026-04-30 19:15 | 52.18809 | -1.42648 | 19223 ft | 368 kts | 140° |
| 2026-04-30 19:15 | 52.16868 | -1.39934 | 19225 ft | 369 kts | 140° |
| 2026-04-30 19:16 | 52.14920 | -1.37212 | 19223 ft | 369 kts | 140° |
| 2026-04-30 19:16 | 52.12973 | -1.34492 | 19224 ft | 369 kts | 140° |
| 2026-04-30 19:16 | 52.09134 | -1.29142 | 18873 ft | 353 kts | 140° |
| 2026-04-30 19:17 | 52.07312 | -1.26610 | 18735 ft | 338 kts | 140° |
| 2026-04-30 19:17 | 52.03877 | -1.21846 | 18484 ft | 305 kts | 140° |
| 2026-04-30 19:17 | 52.02316 | -1.19681 | 18313 ft | 286 kts | 140° |
| 2026-04-30 19:18 | 51.99883 | -1.16321 | 17711 ft | 270 kts | 141° |
| 2026-04-30 19:18 | 51.97987 | -1.13708 | 17031 ft | 266 kts | 141° |
| 2026-04-30 19:18 | 51.96581 | -1.11775 | 16525 ft | 263 kts | 141° |
| 2026-04-30 19:19 | 51.95189 | -1.09861 | 16025 ft | 261 kts | 141° |
| 2026-04-30 19:19 | 51.93831 | -1.07993 | 15543 ft | 259 kts | 141° |
| 2026-04-30 19:19 | 51.91091 | -1.04217 | 14589 ft | 254 kts | 141° |
| 2026-04-30 19:20 | 51.89767 | -1.02394 | 14125 ft | 252 kts | 141° |
| 2026-04-30 19:20 | 51.88418 | -1.00536 | 13622 ft | 250 kts | 141° |
| 2026-04-30 19:20 | 51.85803 | -0.96894 | 12690 ft | 245 kts | 134° |
| 2026-04-30 19:21 | 51.84807 | -0.94650 | 12361 ft | 248 kts | 119° |
| 2026-04-30 19:21 | 51.83308 | -0.89683 | 11727 ft | 248 kts | 119° |
| 2026-04-30 19:22 | 51.81772 | -0.84668 | 11080 ft | 250 kts | 119° |
| 2026-04-30 19:22 | 51.79458 | -0.77147 | 10185 ft | 249 kts | 119° |
| 2026-04-30 19:23 | 51.77165 | -0.69713 | 9341 ft | 245 kts | 119° |
| 2026-04-30 19:24 | 51.75654 | -0.64818 | 8628 ft | 243 kts | 119° |
| 2026-04-30 19:24 | 51.74904 | -0.62381 | 8219 ft | 242 kts | 119° |
| 2026-04-30 19:24 | 51.73382 | -0.57598 | 7560 ft | 236 kts | 127° |
| 2026-04-30 19:25 | 51.69135 | -0.54774 | 7194 ft | 231 kts | 176° |
| 2026-04-30 19:26 | 51.65920 | -0.54591 | 7195 ft | 231 kts | 177° |
| 2026-04-30 19:26 | 51.62721 | -0.54927 | 7189 ft | 235 kts | 199° |
| 2026-04-30 19:26 | 51.61346 | -0.56367 | 7194 ft | 240 kts | 222° |
| 2026-04-30 19:27 | 51.60145 | -0.61378 | 7201 ft | 251 kts | 262° |
| 2026-04-30 19:27 | 51.59855 | -0.66977 | 7034 ft | 253 kts | 262° |
| 2026-04-30 19:28 | 51.59685 | -0.69784 | 6726 ft | 250 kts | 261° |
| 2026-04-30 19:28 | 51.59329 | -0.75304 | 6035 ft | 247 kts | 258° |
| 2026-04-30 19:29 | 51.57460 | -0.79296 | 5326 ft | 219 kts | 198° |
| 2026-04-30 19:29 | 51.56015 | -0.79614 | 5034 ft | 204 kts | 176° |
| 2026-04-30 19:30 | 51.52068 | -0.79401 | 4209 ft | 175 kts | 175° |
| 2026-04-30 19:30 | 51.49732 | -0.79105 | 3745 ft | 166 kts | 161° |
| 2026-04-30 19:31 | 51.47996 | -0.76836 | 3479 ft | 166 kts | 122° |
| 2026-04-30 19:31 | 51.47634 | -0.75073 | 3307 ft | 169 kts | 103° |
| 2026-04-30 19:31 | 51.47633 | -0.71421 | 2894 ft | 154 kts | 96° |
| 2026-04-30 19:32 | 51.47641 | -0.70306 | 2762 ft | 149 kts | 96° |
| 2026-04-30 19:32 | 51.47650 | -0.68666 | 2564 ft | 147 kts | 96° |
| 2026-04-30 19:32 | 51.47658 | -0.67034 | 2373 ft | 146 kts | 96° |
| 2026-04-30 19:32 | 51.47667 | -0.65412 | 2178 ft | 145 kts | 95° |
| 2026-04-30 19:33 | 51.47677 | -0.63863 | 1985 ft | 130 kts | 95° |
| 2026-04-30 19:33 | 51.47685 | -0.62466 | 1816 ft | 122 kts | 95° |
| 2026-04-30 19:33 | 51.47691 | -0.61122 | 1659 ft | 120 kts | 94° |
| 2026-04-30 19:33 | 51.47698 | -0.59788 | 1504 ft | 119 kts | 94° |
| 2026-04-30 19:34 | 51.47704 | -0.58467 | 1338 ft | 118 kts | 93° |
| 2026-04-30 19:34 | 51.47710 | -0.57163 | 1178 ft | 117 kts | 92° |
| 2026-04-30 19:34 | 51.47720 | -0.54558 | 856 ft | 119 kts | 90° |
| 2026-04-30 19:35 | 51.47725 | -0.53234 | 637 ft | 118 kts | 90° |
| 2026-04-30 19:35 | 51.47733 | -0.51916 | 505 ft | 120 kts | 88° |
| 2026-04-30 19:35 | 51.47745 | -0.50574 | 387 ft | 118 kts | 88° |
| 2026-04-30 19:35 | 51.47752 | -0.49258 | 195 ft | 118 kts | 88° |
| 2026-04-30 19:36 | 51.47755 | -0.47951 | 96 ft | 112 kts | 88° |
| 2026-04-30 19:36 | 51.47757 | -0.46882 | 92 ft | 75 kts | 90° |
| 2026-04-30 19:36 | 51.47652 | -0.46089 | 87 ft | 19 kts | 148° |
| 2026-04-30 19:37 | 51.47595 | -0.46193 | 86 ft | 15 kts | 270° |
| 2026-04-30 19:37 | 51.47596 | -0.46377 | 90 ft | 21 kts | 268° |
| 2026-04-30 19:37 | 51.47586 | -0.47035 | 88 ft | 67 kts | 268° |
| 2026-04-30 19:37 | 51.47581 | -0.47589 | 86 ft | 43 kts | 269° |
| 2026-04-30 19:38 | 51.47579 | -0.48063 | 90 ft | 36 kts | 269° |
| 2026-04-30 19:38 | 51.47579 | -0.48171 | 86 ft | 25 kts | 269° |
| 2026-04-30 19:38 | 51.47315 | -0.48359 | 89 ft | 11 kts | 180° |
| 2026-04-30 19:39 | 51.47259 | -0.48452 | 88 ft | 14 kts | 232° |
| 2026-04-30 19:39 | 51.47164 | -0.48472 | 86 ft | 15 kts | 179° |
| 2026-04-30 19:39 | 51.47081 | -0.48472 | 86 ft | 10 kts | 180° |
| 2026-04-30 19:39 | 51.47049 | -0.48557 | 87 ft | 8 kts | 270° |
| 2026-04-30 19:40 | 51.47049 | -0.48585 | 86 ft | 3 kts | 269° |
| 2026-04-30 19:40 | 51.47049 | -0.48587 | 86 ft | 0 kts | 269° |